sensor_id;sensor_type;location;lat;lon;timestamp;P1;durP1;ratioP1;P2;durP2;ratioP2
62435;SDS011;48480;50.252;18.848;2022-10-16T00:02:28;14.70;;;10.60;;
62435;SDS011;48480;50.252;18.848;2022-10-16T00:05:12;15.40;;;10.30;;
62435;SDS011;48480;50.252;18.848;2022-10-16T00:07:56;14.10;;;11.10;;
62435;SDS011;48480;50.252;18.848;2022-10-16T00:10:40;18.10;;;11.50;;
62435;SDS011;48480;50.252;18.848;2022-10-16T00:13:24;14.50;;;11.20;;
62435;SDS011;48480;50.252;18.848;2022-10-16T00:16:08;18.10;;;12.10;;
62435;SDS011;48480;50.252;18.848;2022-10-16T00:18:53;17.10;;;11.60;;
62435;SDS011;48480;50.252;18.848;2022-10-16T00:21:38;16.30;;;11.10;;
62435;SDS011;48480;50.252;18.848;2022-10-16T00:24:22;14.70;;;11.60;;
62435;SDS011;48480;50.252;18.848;2022-10-16T00:27:06;16.50;;;11.50;;
62435;SDS011;48480;50.252;18.848;2022-10-16T00:29:50;15.30;;;11.60;;
62435;SDS011;48480;50.252;18.848;2022-10-16T00:32:35;14.00;;;10.70;;
62435;SDS011;48480;50.252;18.848;2022-10-16T00:35:19;16.00;;;11.40;;
62435;SDS011;48480;50.252;18.848;2022-10-16T00:38:03;15.80;;;11.40;;
62435;SDS011;48480;50.252;18.848;2022-10-16T00:40:47;16.20;;;11.80;;
62435;SDS011;48480;50.252;18.848;2022-10-16T00:43:47;14.10;;;12.00;;
62435;SDS011;48480;50.252;18.848;2022-10-16T00:46:38;18.60;;;12.20;;
62435;SDS011;48480;50.252;18.848;2022-10-16T00:49:23;12.60;;;10.70;;
62435;SDS011;48480;50.252;18.848;2022-10-16T00:52:07;14.60;;;11.10;;
62435;SDS011;48480;50.252;18.848;2022-10-16T00:54:52;15.00;;;11.40;;
62435;SDS011;48480;50.252;18.848;2022-10-16T00:57:37;14.10;;;11.50;;
62435;SDS011;48480;50.252;18.848;2022-10-16T01:00:24;16.10;;;11.20;;
62435;SDS011;48480;50.252;18.848;2022-10-16T01:13:10;13.30;;;10.70;;
62435;SDS011;48480;50.252;18.848;2022-10-16T01:16:01;15.90;;;11.20;;
62435;SDS011;48480;50.252;18.848;2022-10-16T01:18:49;14.80;;;11.20;;
62435;SDS011;48480;50.252;18.848;2022-10-16T01:21:41;13.80;;;10.80;;
62435;SDS011;48480;50.252;18.848;2022-10-16T01:27:24;17.30;;;11.40;;
62435;SDS011;48480;50.252;18.848;2022-10-16T01:30:21;17.00;;;12.70;;
62435;SDS011;48480;50.252;18.848;2022-10-16T01:33:10;19.00;;;12.00;;
62435;SDS011;48480;50.252;18.848;2022-10-16T01:36:06;22.20;;;14.40;;
62435;SDS011;48480;50.252;18.848;2022-10-16T01:38:56;23.40;;;15.10;;
62435;SDS011;48480;50.252;18.848;2022-10-16T01:41:46;22.80;;;13.40;;
62435;SDS011;48480;50.252;18.848;2022-10-16T01:44:35;17.90;;;13.70;;
62435;SDS011;48480;50.252;18.848;2022-10-16T01:47:23;19.00;;;12.80;;
62435;SDS011;48480;50.252;18.848;2022-10-16T01:50:09;18.80;;;13.90;;
62435;SDS011;48480;50.252;18.848;2022-10-16T01:52:53;19.70;;;13.60;;
62435;SDS011;48480;50.252;18.848;2022-10-16T01:55:43;18.30;;;13.20;;
62435;SDS011;48480;50.252;18.848;2022-10-16T01:58:30;20.80;;;13.70;;
62435;SDS011;48480;50.252;18.848;2022-10-16T02:01:19;17.70;;;12.30;;
62435;SDS011;48480;50.252;18.848;2022-10-16T02:04:20;18.80;;;12.40;;
62435;SDS011;48480;50.252;18.848;2022-10-16T02:07:10;20.60;;;13.70;;
62435;SDS011;48480;50.252;18.848;2022-10-16T02:09:54;20.10;;;13.40;;
62435;SDS011;48480;50.252;18.848;2022-10-16T02:12:40;20.40;;;13.20;;
62435;SDS011;48480;50.252;18.848;2022-10-16T02:15:28;22.00;;;13.80;;
62435;SDS011;48480;50.252;18.848;2022-10-16T02:18:13;19.00;;;12.90;;
62435;SDS011;48480;50.252;18.848;2022-10-16T02:30:07;22.50;;;14.10;;
62435;SDS011;48480;50.252;18.848;2022-10-16T02:32:56;20.90;;;15.50;;
62435;SDS011;48480;50.252;18.848;2022-10-16T02:35:44;23.40;;;15.20;;
62435;SDS011;48480;50.252;18.848;2022-10-16T02:38:30;22.70;;;14.90;;
62435;SDS011;48480;50.252;18.848;2022-10-16T02:41:14;21.30;;;14.70;;
62435;SDS011;48480;50.252;18.848;2022-10-16T02:43:59;22.00;;;14.50;;
62435;SDS011;48480;50.252;18.848;2022-10-16T02:46:44;22.00;;;14.00;;
62435;SDS011;48480;50.252;18.848;2022-10-16T02:49:27;18.00;;;13.50;;
62435;SDS011;48480;50.252;18.848;2022-10-16T02:52:11;19.70;;;13.60;;
62435;SDS011;48480;50.252;18.848;2022-10-16T02:54:55;25.50;;;14.50;;
62435;SDS011;48480;50.252;18.848;2022-10-16T02:57:39;19.60;;;14.10;;
62435;SDS011;48480;50.252;18.848;2022-10-16T03:00:23;19.40;;;14.40;;
62435;SDS011;48480;50.252;18.848;2022-10-16T03:03:07;19.10;;;13.80;;
62435;SDS011;48480;50.252;18.848;2022-10-16T03:05:51;20.70;;;15.00;;
62435;SDS011;48480;50.252;18.848;2022-10-16T03:08:35;20.20;;;15.40;;
62435;SDS011;48480;50.252;18.848;2022-10-16T03:11:19;25.30;;;16.70;;
62435;SDS011;48480;50.252;18.848;2022-10-16T03:14:03;19.40;;;14.20;;
62435;SDS011;48480;50.252;18.848;2022-10-16T03:16:47;21.90;;;15.80;;
62435;SDS011;48480;50.252;18.848;2022-10-16T03:19:31;22.00;;;16.20;;
62435;SDS011;48480;50.252;18.848;2022-10-16T03:22:14;23.20;;;16.60;;
62435;SDS011;48480;50.252;18.848;2022-10-16T03:24:59;20.80;;;16.40;;
62435;SDS011;48480;50.252;18.848;2022-10-16T03:27:45;24.00;;;17.50;;
62435;SDS011;48480;50.252;18.848;2022-10-16T03:30:29;20.20;;;16.30;;
62435;SDS011;48480;50.252;18.848;2022-10-16T03:33:13;23.30;;;16.50;;
62435;SDS011;48480;50.252;18.848;2022-10-16T03:35:57;22.30;;;17.00;;
62435;SDS011;48480;50.252;18.848;2022-10-16T03:38:41;21.20;;;15.50;;
62435;SDS011;48480;50.252;18.848;2022-10-16T03:41:25;22.00;;;16.10;;
62435;SDS011;48480;50.252;18.848;2022-10-16T03:44:09;24.20;;;16.00;;
62435;SDS011;48480;50.252;18.848;2022-10-16T03:46:53;23.60;;;16.60;;
62435;SDS011;48480;50.252;18.848;2022-10-16T03:49:36;24.20;;;14.70;;
62435;SDS011;48480;50.252;18.848;2022-10-16T03:52:20;18.50;;;12.70;;
62435;SDS011;48480;50.252;18.848;2022-10-16T03:55:05;19.70;;;12.90;;
62435;SDS011;48480;50.252;18.848;2022-10-16T03:57:49;22.40;;;14.00;;
62435;SDS011;48480;50.252;18.848;2022-10-16T04:00:33;18.00;;;12.80;;
62435;SDS011;48480;50.252;18.848;2022-10-16T04:03:18;19.80;;;13.90;;
62435;SDS011;48480;50.252;18.848;2022-10-16T04:05:44;18.00;;;13.30;;
62435;SDS011;48480;50.252;18.848;2022-10-16T04:08:09;19.50;;;13.50;;
62435;SDS011;48480;50.252;18.848;2022-10-16T04:10:35;17.90;;;13.00;;
62435;SDS011;48480;50.252;18.848;2022-10-16T04:13:00;18.00;;;12.70;;
62435;SDS011;48480;50.252;18.848;2022-10-16T04:15:26;17.60;;;13.40;;
62435;SDS011;48480;50.252;18.848;2022-10-16T04:17:51;18.90;;;12.80;;
62435;SDS011;48480;50.252;18.848;2022-10-16T04:20:17;21.10;;;12.90;;
62435;SDS011;48480;50.252;18.848;2022-10-16T04:22:43;20.20;;;13.10;;
62435;SDS011;48480;50.252;18.848;2022-10-16T04:25:09;17.30;;;13.10;;
62435;SDS011;48480;50.252;18.848;2022-10-16T04:27:34;22.30;;;13.80;;
62435;SDS011;48480;50.252;18.848;2022-10-16T04:30:00;27.50;;;14.50;;
62435;SDS011;48480;50.252;18.848;2022-10-16T04:32:26;19.70;;;14.20;;
62435;SDS011;48480;50.252;18.848;2022-10-16T04:34:52;18.50;;;13.90;;
62435;SDS011;48480;50.252;18.848;2022-10-16T04:37:18;19.70;;;14.30;;
62435;SDS011;48480;50.252;18.848;2022-10-16T04:39:43;24.10;;;14.70;;
62435;SDS011;48480;50.252;18.848;2022-10-16T04:42:10;21.40;;;14.80;;
62435;SDS011;48480;50.252;18.848;2022-10-16T04:44:35;19.30;;;13.40;;
62435;SDS011;48480;50.252;18.848;2022-10-16T04:47:01;18.40;;;14.00;;
62435;SDS011;48480;50.252;18.848;2022-10-16T04:49:26;22.00;;;15.00;;
62435;SDS011;48480;50.252;18.848;2022-10-16T04:51:51;17.70;;;15.30;;
62435;SDS011;48480;50.252;18.848;2022-10-16T04:54:17;19.60;;;13.80;;
62435;SDS011;48480;50.252;18.848;2022-10-16T04:56:42;20.70;;;14.60;;
62435;SDS011;48480;50.252;18.848;2022-10-16T04:59:12;21.80;;;15.10;;
62435;SDS011;48480;50.252;18.848;2022-10-16T05:01:41;22.00;;;14.90;;
62435;SDS011;48480;50.252;18.848;2022-10-16T05:04:07;19.70;;;17.00;;
62435;SDS011;48480;50.252;18.848;2022-10-16T05:06:33;19.00;;;15.20;;
62435;SDS011;48480;50.252;18.848;2022-10-16T05:08:59;19.80;;;14.80;;
62435;SDS011;48480;50.252;18.848;2022-10-16T05:11:24;19.60;;;15.10;;
62435;SDS011;48480;50.252;18.848;2022-10-16T05:13:50;17.90;;;14.60;;
62435;SDS011;48480;50.252;18.848;2022-10-16T05:16:15;20.50;;;14.60;;
62435;SDS011;48480;50.252;18.848;2022-10-16T05:18:41;15.40;;;14.20;;
62435;SDS011;48480;50.252;18.848;2022-10-16T05:21:06;18.70;;;14.80;;
62435;SDS011;48480;50.252;18.848;2022-10-16T05:23:32;21.90;;;14.60;;
62435;SDS011;48480;50.252;18.848;2022-10-16T05:25:58;20.70;;;14.30;;
62435;SDS011;48480;50.252;18.848;2022-10-16T05:28:25;18.50;;;14.10;;
62435;SDS011;48480;50.252;18.848;2022-10-16T05:30:52;20.20;;;14.90;;
62435;SDS011;48480;50.252;18.848;2022-10-16T05:33:21;19.30;;;14.80;;
62435;SDS011;48480;50.252;18.848;2022-10-16T05:35:48;19.10;;;14.80;;
62435;SDS011;48480;50.252;18.848;2022-10-16T05:38:15;20.40;;;14.80;;
62435;SDS011;48480;50.252;18.848;2022-10-16T05:40:41;19.40;;;14.50;;
62435;SDS011;48480;50.252;18.848;2022-10-16T05:43:06;20.00;;;14.10;;
62435;SDS011;48480;50.252;18.848;2022-10-16T05:45:32;17.80;;;14.10;;
62435;SDS011;48480;50.252;18.848;2022-10-16T05:47:58;18.20;;;13.90;;
62435;SDS011;48480;50.252;18.848;2022-10-16T05:50:24;20.80;;;13.80;;
62435;SDS011;48480;50.252;18.848;2022-10-16T05:52:49;19.80;;;14.30;;
62435;SDS011;48480;50.252;18.848;2022-10-16T05:55:15;18.40;;;14.10;;
62435;SDS011;48480;50.252;18.848;2022-10-16T05:57:40;18.80;;;13.40;;
62435;SDS011;48480;50.252;18.848;2022-10-16T06:00:06;18.70;;;13.80;;
62435;SDS011;48480;50.252;18.848;2022-10-16T06:02:32;19.40;;;14.20;;
62435;SDS011;48480;50.252;18.848;2022-10-16T06:04:57;18.80;;;13.80;;
62435;SDS011;48480;50.252;18.848;2022-10-16T06:07:23;19.00;;;14.50;;
62435;SDS011;48480;50.252;18.848;2022-10-16T06:09:49;20.30;;;14.40;;
62435;SDS011;48480;50.252;18.848;2022-10-16T06:12:15;20.30;;;14.40;;
62435;SDS011;48480;50.252;18.848;2022-10-16T06:14:40;19.70;;;14.60;;
62435;SDS011;48480;50.252;18.848;2022-10-16T06:17:06;19.00;;;13.30;;
62435;SDS011;48480;50.252;18.848;2022-10-16T06:19:31;22.00;;;14.30;;
62435;SDS011;48480;50.252;18.848;2022-10-16T06:21:57;21.20;;;12.90;;
62435;SDS011;48480;50.252;18.848;2022-10-16T06:24:23;17.80;;;11.90;;
62435;SDS011;48480;50.252;18.848;2022-10-16T06:26:49;18.70;;;12.70;;
62435;SDS011;48480;50.252;18.848;2022-10-16T06:29:15;19.60;;;12.80;;
62435;SDS011;48480;50.252;18.848;2022-10-16T06:31:40;17.30;;;12.90;;
62435;SDS011;48480;50.252;18.848;2022-10-16T06:34:08;17.80;;;13.10;;
62435;SDS011;48480;50.252;18.848;2022-10-16T06:36:35;16.80;;;12.40;;
62435;SDS011;48480;50.252;18.848;2022-10-16T06:39:01;16.70;;;11.70;;
62435;SDS011;48480;50.252;18.848;2022-10-16T06:41:27;20.70;;;12.30;;
62435;SDS011;48480;50.252;18.848;2022-10-16T06:43:52;21.90;;;13.10;;
62435;SDS011;48480;50.252;18.848;2022-10-16T06:46:19;17.50;;;11.70;;
62435;SDS011;48480;50.252;18.848;2022-10-16T06:48:47;19.60;;;12.60;;
62435;SDS011;48480;50.252;18.848;2022-10-16T06:51:13;15.90;;;11.70;;
62435;SDS011;48480;50.252;18.848;2022-10-16T06:53:42;16.10;;;12.70;;
62435;SDS011;48480;50.252;18.848;2022-10-16T06:56:09;20.00;;;12.70;;
62435;SDS011;48480;50.252;18.848;2022-10-16T06:58:36;15.30;;;11.20;;
62435;SDS011;48480;50.252;18.848;2022-10-16T07:01:02;18.00;;;12.60;;
62435;SDS011;48480;50.252;18.848;2022-10-16T07:03:28;18.70;;;11.90;;
62435;SDS011;48480;50.252;18.848;2022-10-16T07:05:54;17.00;;;12.10;;
62435;SDS011;48480;50.252;18.848;2022-10-16T07:08:19;17.20;;;12.00;;
62435;SDS011;48480;50.252;18.848;2022-10-16T07:10:45;16.50;;;11.70;;
62435;SDS011;48480;50.252;18.848;2022-10-16T07:13:10;17.10;;;11.10;;
62435;SDS011;48480;50.252;18.848;2022-10-16T07:15:38;17.20;;;11.60;;
62435;SDS011;48480;50.252;18.848;2022-10-16T07:18:04;18.00;;;12.00;;
62435;SDS011;48480;50.252;18.848;2022-10-16T07:20:29;17.70;;;12.50;;
62435;SDS011;48480;50.252;18.848;2022-10-16T07:22:55;17.70;;;11.30;;
62435;SDS011;48480;50.252;18.848;2022-10-16T07:25:20;12.40;;;10.10;;
62435;SDS011;48480;50.252;18.848;2022-10-16T07:27:46;19.60;;;11.40;;
62435;SDS011;48480;50.252;18.848;2022-10-16T07:30:11;16.50;;;10.80;;
62435;SDS011;48480;50.252;18.848;2022-10-16T07:32:37;14.40;;;10.90;;
62435;SDS011;48480;50.252;18.848;2022-10-16T07:35:02;16.60;;;11.10;;
62435;SDS011;48480;50.252;18.848;2022-10-16T07:37:28;16.70;;;10.80;;
62435;SDS011;48480;50.252;18.848;2022-10-16T07:39:54;15.90;;;9.80;;
62435;SDS011;48480;50.252;18.848;2022-10-16T07:42:19;12.20;;;10.00;;
62435;SDS011;48480;50.252;18.848;2022-10-16T07:44:45;13.10;;;9.30;;
62435;SDS011;48480;50.252;18.848;2022-10-16T07:47:10;14.40;;;9.90;;
62435;SDS011;48480;50.252;18.848;2022-10-16T07:49:38;15.20;;;9.50;;
62435;SDS011;48480;50.252;18.848;2022-10-16T07:52:04;11.50;;;8.90;;
62435;SDS011;48480;50.252;18.848;2022-10-16T07:54:29;12.30;;;9.40;;
62435;SDS011;48480;50.252;18.848;2022-10-16T07:56:55;11.60;;;9.20;;
62435;SDS011;48480;50.252;18.848;2022-10-16T07:59:20;13.60;;;9.50;;
62435;SDS011;48480;50.252;18.848;2022-10-16T08:01:46;12.80;;;9.40;;
62435;SDS011;48480;50.252;18.848;2022-10-16T08:04:11;12.20;;;9.30;;
62435;SDS011;48480;50.252;18.848;2022-10-16T08:06:37;10.70;;;8.60;;
62435;SDS011;48480;50.252;18.848;2022-10-16T08:09:05;10.70;;;9.20;;
62435;SDS011;48480;50.252;18.848;2022-10-16T08:11:32;10.40;;;8.70;;
62435;SDS011;48480;50.252;18.848;2022-10-16T08:13:58;15.30;;;9.30;;
62435;SDS011;48480;50.252;18.848;2022-10-16T08:16:23;15.70;;;9.30;;
62435;SDS011;48480;50.252;18.848;2022-10-16T08:18:49;10.50;;;8.80;;
62435;SDS011;48480;50.252;18.848;2022-10-16T08:21:17;11.80;;;9.10;;
62435;SDS011;48480;50.252;18.848;2022-10-16T08:23:43;11.30;;;8.50;;
62435;SDS011;48480;50.252;18.848;2022-10-16T08:26:10;11.70;;;8.70;;
62435;SDS011;48480;50.252;18.848;2022-10-16T08:28:36;11.50;;;8.60;;
62435;SDS011;48480;50.252;18.848;2022-10-16T08:31:09;10.30;;;8.50;;
62435;SDS011;48480;50.252;18.848;2022-10-16T08:33:37;9.60;;;8.30;;
62435;SDS011;48480;50.252;18.848;2022-10-16T08:36:04;12.40;;;9.20;;
62435;SDS011;48480;50.252;18.848;2022-10-16T08:38:30;10.80;;;9.40;;
62435;SDS011;48480;50.252;18.848;2022-10-16T08:40:58;12.60;;;8.70;;
62435;SDS011;48480;50.252;18.848;2022-10-16T08:49:08;12.20;;;8.90;;
62435;SDS011;48480;50.252;18.848;2022-10-16T08:51:38;13.70;;;9.80;;
62435;SDS011;48480;50.252;18.848;2022-10-16T08:54:05;12.20;;;8.40;;
62435;SDS011;48480;50.252;18.848;2022-10-16T08:56:40;12.00;;;8.50;;
62435;SDS011;48480;50.252;18.848;2022-10-16T08:59:06;11.60;;;8.40;;
62435;SDS011;48480;50.252;18.848;2022-10-16T09:01:40;10.70;;;8.50;;
62435;SDS011;48480;50.252;18.848;2022-10-16T09:07:17;9.40;;;8.30;;
62435;SDS011;48480;50.252;18.848;2022-10-16T09:09:49;14.40;;;8.70;;
62435;SDS011;48480;50.252;18.848;2022-10-16T09:20:34;12.30;;;8.40;;
62435;SDS011;48480;50.252;18.848;2022-10-16T09:23:12;13.50;;;9.10;;
62435;SDS011;48480;50.252;18.848;2022-10-16T09:25:42;9.50;;;8.10;;
62435;SDS011;48480;50.252;18.848;2022-10-16T09:28:13;11.80;;;8.60;;
62435;SDS011;48480;50.252;18.848;2022-10-16T09:30:38;10.40;;;8.20;;
62435;SDS011;48480;50.252;18.848;2022-10-16T09:33:04;10.40;;;8.50;;
62435;SDS011;48480;50.252;18.848;2022-10-16T09:35:32;10.60;;;7.40;;
62435;SDS011;48480;50.252;18.848;2022-10-16T09:38:02;9.30;;;7.40;;
62435;SDS011;48480;50.252;18.848;2022-10-16T09:40:28;8.60;;;7.20;;
62435;SDS011;48480;50.252;18.848;2022-10-16T09:43:12;10.50;;;7.50;;
62435;SDS011;48480;50.252;18.848;2022-10-16T09:45:59;13.30;;;7.80;;
62435;SDS011;48480;50.252;18.848;2022-10-16T09:48:28;9.50;;;7.60;;
62435;SDS011;48480;50.252;18.848;2022-10-16T09:51:05;11.90;;;7.80;;
62435;SDS011;48480;50.252;18.848;2022-10-16T09:53:37;11.10;;;7.60;;
62435;SDS011;48480;50.252;18.848;2022-10-16T09:56:04;10.40;;;8.10;;
62435;SDS011;48480;50.252;18.848;2022-10-16T09:58:31;11.60;;;8.10;;
62435;SDS011;48480;50.252;18.848;2022-10-16T10:00:58;10.30;;;8.00;;
62435;SDS011;48480;50.252;18.848;2022-10-16T10:06:06;14.20;;;8.90;;
62435;SDS011;48480;50.252;18.848;2022-10-16T10:08:41;10.60;;;8.50;;
62435;SDS011;48480;50.252;18.848;2022-10-16T10:11:17;10.00;;;6.30;;
62435;SDS011;48480;50.252;18.848;2022-10-16T10:13:42;10.10;;;7.30;;
62435;SDS011;48480;50.252;18.848;2022-10-16T10:16:08;7.60;;;6.70;;
62435;SDS011;48480;50.252;18.848;2022-10-16T10:18:34;9.90;;;7.60;;
62435;SDS011;48480;50.252;18.848;2022-10-16T10:21:00;10.60;;;8.10;;
62435;SDS011;48480;50.252;18.848;2022-10-16T10:23:27;10.30;;;7.90;;
62435;SDS011;48480;50.252;18.848;2022-10-16T10:28:42;10.00;;;7.50;;
62435;SDS011;48480;50.252;18.848;2022-10-16T10:37:07;12.90;;;8.30;;
62435;SDS011;48480;50.252;18.848;2022-10-16T10:53:34;11.10;;;9.60;;
62435;SDS011;48480;50.252;18.848;2022-10-16T11:04:48;9.80;;;8.30;;
62435;SDS011;48480;50.252;18.848;2022-10-16T11:07:27;11.10;;;8.50;;
62435;SDS011;48480;50.252;18.848;2022-10-16T11:09:59;12.20;;;7.60;;
62435;SDS011;48480;50.252;18.848;2022-10-16T11:12:34;13.00;;;9.60;;
62435;SDS011;48480;50.252;18.848;2022-10-16T11:15:18;9.80;;;8.30;;
62435;SDS011;48480;50.252;18.848;2022-10-16T11:23:33;11.70;;;8.30;;
62435;SDS011;48480;50.252;18.848;2022-10-16T11:26:08;12.30;;;8.00;;
62435;SDS011;48480;50.252;18.848;2022-10-16T11:28:42;10.00;;;8.00;;
62435;SDS011;48480;50.252;18.848;2022-10-16T11:31:17;14.30;;;9.20;;
62435;SDS011;48480;50.252;18.848;2022-10-16T11:34:01;14.60;;;10.20;;
62435;SDS011;48480;50.252;18.848;2022-10-16T11:36:44;14.20;;;10.00;;
62435;SDS011;48480;50.252;18.848;2022-10-16T11:39:21;11.70;;;8.50;;
62435;SDS011;48480;50.252;18.848;2022-10-16T11:42:05;13.40;;;8.70;;
62435;SDS011;48480;50.252;18.848;2022-10-16T11:44:44;13.20;;;8.90;;
62435;SDS011;48480;50.252;18.848;2022-10-16T11:47:24;11.80;;;9.00;;
62435;SDS011;48480;50.252;18.848;2022-10-16T11:49:52;15.30;;;9.40;;
62435;SDS011;48480;50.252;18.848;2022-10-16T11:52:30;14.30;;;10.10;;
62435;SDS011;48480;50.252;18.848;2022-10-16T11:55:05;12.80;;;9.00;;
62435;SDS011;48480;50.252;18.848;2022-10-16T11:57:54;13.60;;;8.90;;
62435;SDS011;48480;50.252;18.848;2022-10-16T12:00:28;12.00;;;9.60;;
62435;SDS011;48480;50.252;18.848;2022-10-16T12:03:03;14.50;;;10.00;;
62435;SDS011;48480;50.252;18.848;2022-10-16T12:08:25;12.70;;;9.40;;
62435;SDS011;48480;50.252;18.848;2022-10-16T12:10:51;12.00;;;8.30;;
62435;SDS011;48480;50.252;18.848;2022-10-16T12:18:43;13.20;;;9.00;;
62435;SDS011;48480;50.252;18.848;2022-10-16T12:21:11;12.10;;;8.90;;
62435;SDS011;48480;50.252;18.848;2022-10-16T12:23:47;12.20;;;8.50;;
62435;SDS011;48480;50.252;18.848;2022-10-16T12:26:22;9.80;;;8.00;;
62435;SDS011;48480;50.252;18.848;2022-10-16T12:28:50;10.70;;;8.40;;
62435;SDS011;48480;50.252;18.848;2022-10-16T12:31:16;9.60;;;7.90;;
62435;SDS011;48480;50.252;18.848;2022-10-16T12:33:58;8.50;;;7.00;;
62435;SDS011;48480;50.252;18.848;2022-10-16T12:36:30;10.40;;;8.10;;
62435;SDS011;48480;50.252;18.848;2022-10-16T12:38:58;9.30;;;7.20;;
62435;SDS011;48480;50.252;18.848;2022-10-16T12:44:01;11.40;;;7.70;;
62435;SDS011;48480;50.252;18.848;2022-10-16T12:51:53;11.20;;;8.40;;
62435;SDS011;48480;50.252;18.848;2022-10-16T12:54:21;11.00;;;8.50;;
62435;SDS011;48480;50.252;18.848;2022-10-16T12:59:59;11.30;;;7.90;;
62435;SDS011;48480;50.252;18.848;2022-10-16T13:22:05;10.90;;;7.40;;
62435;SDS011;48480;50.252;18.848;2022-10-16T13:30:01;10.70;;;7.50;;
62435;SDS011;48480;50.252;18.848;2022-10-16T13:32:46;9.20;;;7.20;;
62435;SDS011;48480;50.252;18.848;2022-10-16T13:35:30;8.20;;;7.40;;
62435;SDS011;48480;50.252;18.848;2022-10-16T13:38:05;8.40;;;6.80;;
62435;SDS011;48480;50.252;18.848;2022-10-16T13:41:16;10.50;;;8.00;;
62435;SDS011;48480;50.252;18.848;2022-10-16T13:43:49;10.10;;;7.00;;
62435;SDS011;48480;50.252;18.848;2022-10-16T13:46:21;8.40;;;7.10;;
62435;SDS011;48480;50.252;18.848;2022-10-16T13:48:58;10.30;;;7.70;;
62435;SDS011;48480;50.252;18.848;2022-10-16T13:51:27;9.70;;;7.80;;
62435;SDS011;48480;50.252;18.848;2022-10-16T13:53:54;10.20;;;8.10;;
62435;SDS011;48480;50.252;18.848;2022-10-16T13:56:22;11.70;;;8.00;;
62435;SDS011;48480;50.252;18.848;2022-10-16T13:58:58;9.80;;;7.40;;
62435;SDS011;48480;50.252;18.848;2022-10-16T14:01:35;10.70;;;8.10;;
62435;SDS011;48480;50.252;18.848;2022-10-16T14:04:09;10.20;;;7.90;;
62435;SDS011;48480;50.252;18.848;2022-10-16T14:06:40;12.80;;;8.90;;
62435;SDS011;48480;50.252;18.848;2022-10-16T14:09:21;12.00;;;9.00;;
62435;SDS011;48480;50.252;18.848;2022-10-16T14:11:50;13.00;;;8.70;;
62435;SDS011;48480;50.252;18.848;2022-10-16T14:14:18;14.50;;;10.80;;
62435;SDS011;48480;50.252;18.848;2022-10-16T14:16:50;12.10;;;9.30;;
62435;SDS011;48480;50.252;18.848;2022-10-16T14:19:26;9.50;;;8.30;;
62435;SDS011;48480;50.252;18.848;2022-10-16T14:21:54;10.10;;;7.70;;
62435;SDS011;48480;50.252;18.848;2022-10-16T14:24:33;10.20;;;8.00;;
62435;SDS011;48480;50.252;18.848;2022-10-16T14:27:00;8.80;;;7.40;;
62435;SDS011;48480;50.252;18.848;2022-10-16T14:29:28;10.60;;;8.50;;
62435;SDS011;48480;50.252;18.848;2022-10-16T14:32:02;10.50;;;9.00;;
62435;SDS011;48480;50.252;18.848;2022-10-16T14:34:33;9.70;;;7.80;;
62435;SDS011;48480;50.252;18.848;2022-10-16T14:37:08;10.80;;;8.40;;
62435;SDS011;48480;50.252;18.848;2022-10-16T14:39:48;9.30;;;7.60;;
62435;SDS011;48480;50.252;18.848;2022-10-16T14:42:16;10.60;;;8.30;;
62435;SDS011;48480;50.252;18.848;2022-10-16T14:44:47;11.80;;;8.60;;
62435;SDS011;48480;50.252;18.848;2022-10-16T14:47:20;11.80;;;8.60;;
62435;SDS011;48480;50.252;18.848;2022-10-16T14:49:51;12.30;;;10.00;;
62435;SDS011;48480;50.252;18.848;2022-10-16T14:52:22;12.20;;;9.70;;
62435;SDS011;48480;50.252;18.848;2022-10-16T14:54:50;14.60;;;9.40;;
62435;SDS011;48480;50.252;18.848;2022-10-16T14:57:20;12.40;;;9.00;;
62435;SDS011;48480;50.252;18.848;2022-10-16T14:59:51;11.40;;;9.50;;
62435;SDS011;48480;50.252;18.848;2022-10-16T15:04:49;11.30;;;9.30;;
62435;SDS011;48480;50.252;18.848;2022-10-16T15:07:18;12.60;;;9.60;;
62435;SDS011;48480;50.252;18.848;2022-10-16T15:09:43;12.60;;;9.80;;
62435;SDS011;48480;50.252;18.848;2022-10-16T15:12:09;13.70;;;9.30;;
62435;SDS011;48480;50.252;18.848;2022-10-16T15:14:34;10.60;;;8.90;;
62435;SDS011;48480;50.252;18.848;2022-10-16T15:17:00;13.20;;;9.30;;
62435;SDS011;48480;50.252;18.848;2022-10-16T15:19:29;13.00;;;9.40;;
62435;SDS011;48480;50.252;18.848;2022-10-16T15:21:55;12.50;;;9.00;;
62435;SDS011;48480;50.252;18.848;2022-10-16T15:24:25;12.80;;;9.20;;
62435;SDS011;48480;50.252;18.848;2022-10-16T15:26:54;14.60;;;9.80;;
62435;SDS011;48480;50.252;18.848;2022-10-16T15:29:21;12.20;;;9.60;;
62435;SDS011;48480;50.252;18.848;2022-10-16T15:31:47;15.50;;;10.70;;
62435;SDS011;48480;50.252;18.848;2022-10-16T15:34:13;15.30;;;10.00;;
62435;SDS011;48480;50.252;18.848;2022-10-16T15:36:39;12.50;;;10.60;;
62435;SDS011;48480;50.252;18.848;2022-10-16T15:39:12;12.70;;;10.20;;
62435;SDS011;48480;50.252;18.848;2022-10-16T15:41:40;13.50;;;10.40;;
62435;SDS011;48480;50.252;18.848;2022-10-16T15:44:06;14.50;;;12.00;;
62435;SDS011;48480;50.252;18.848;2022-10-16T15:46:32;16.40;;;11.00;;
62435;SDS011;48480;50.252;18.848;2022-10-16T15:48:59;16.30;;;11.60;;
62435;SDS011;48480;50.252;18.848;2022-10-16T15:51:25;14.40;;;10.80;;
62435;SDS011;48480;50.252;18.848;2022-10-16T15:53:55;15.00;;;11.60;;
62435;SDS011;48480;50.252;18.848;2022-10-16T15:56:24;14.30;;;11.60;;
62435;SDS011;48480;50.252;18.848;2022-10-16T15:58:53;18.80;;;13.20;;
62435;SDS011;48480;50.252;18.848;2022-10-16T16:01:20;18.30;;;14.10;;
62435;SDS011;48480;50.252;18.848;2022-10-16T16:03:46;18.90;;;15.10;;
62435;SDS011;48480;50.252;18.848;2022-10-16T16:06:12;18.50;;;14.90;;
62435;SDS011;48480;50.252;18.848;2022-10-16T16:08:39;14.50;;;12.00;;
62435;SDS011;48480;50.252;18.848;2022-10-16T16:11:09;16.00;;;12.10;;
62435;SDS011;48480;50.252;18.848;2022-10-16T16:13:36;13.80;;;10.80;;
62435;SDS011;48480;50.252;18.848;2022-10-16T16:16:10;17.80;;;12.00;;
62435;SDS011;48480;50.252;18.848;2022-10-16T16:18:37;15.50;;;10.90;;
62435;SDS011;48480;50.252;18.848;2022-10-16T16:21:03;17.60;;;11.60;;
62435;SDS011;48480;50.252;18.848;2022-10-16T16:23:29;19.40;;;11.80;;
62435;SDS011;48480;50.252;18.848;2022-10-16T16:28:32;17.80;;;11.00;;
62435;SDS011;48480;50.252;18.848;2022-10-16T16:30:58;15.60;;;11.60;;
62435;SDS011;48480;50.252;18.848;2022-10-16T16:33:40;16.30;;;11.70;;
62435;SDS011;48480;50.252;18.848;2022-10-16T16:36:22;18.80;;;12.30;;
62435;SDS011;48480;50.252;18.848;2022-10-16T16:38:51;18.20;;;12.40;;
62435;SDS011;48480;50.252;18.848;2022-10-16T16:41:20;17.00;;;12.70;;
62435;SDS011;48480;50.252;18.848;2022-10-16T16:43:54;15.80;;;12.90;;
62435;SDS011;48480;50.252;18.848;2022-10-16T16:46:30;17.50;;;13.70;;
62435;SDS011;48480;50.252;18.848;2022-10-16T16:48:59;21.80;;;14.20;;
62435;SDS011;48480;50.252;18.848;2022-10-16T16:51:35;20.30;;;14.30;;
62435;SDS011;48480;50.252;18.848;2022-10-16T16:54:05;19.50;;;14.60;;
62435;SDS011;48480;50.252;18.848;2022-10-16T16:57:00;23.70;;;15.50;;